Weather reports worldwide

Advertisment
K13 Alpha, Netherlands (6252): temperature & dewpoint: 22.01.2020 09:00:00 - 28.01.2020 09:00:00 (CET)K13 Alpha, Netherlands (6252): water temperature: 22.01.2020 09:00:00 - 28.01.2020 09:00:00 (CET)K13 Alpha, Netherlands (6252): wind speed & gusts: 22.01.2020 09:00:00 - 28.01.2020 09:00:00 (CET)K13 Alpha, Netherlands (6252): wind direction: 22.01.2020 09:00:00 - 28.01.2020 09:00:00 (CET)K13 Alpha, Netherlands (6252): reduced air pressure: 22.01.2020 09:00:00 - 28.01.2020 09:00:00 (CET)
Date & Time tt [°C] td [°C] tw [°C] ff [km/h] ff [kn] fx [km/h] fx [kn] dd ppp [hPa]
28.01.2020 09:00:00 5,0 2,5 8,2 46 25 72 39 W 986,3
28.01.2020 08:00:00 5,7 3,3 8,2 46 25 47 25 W 985,7
28.01.2020 07:00:00 6,5 3,6 8,1 34 18 32 18 W 985,8
28.01.2020 06:00:00 6,7 3,8 8,0 35 19 40 21 WSW 986,3
28.01.2020 05:00:00 6,6 4,2 7,9 37 20 36 19 WSW 987,0
28.01.2020 04:00:00 6,5 4,1 7,9 37 20 40 21 WSW 987,9
28.01.2020 03:00:00 6,2 3,6 8,0 35 19 40 21 WSW 988,4
28.01.2020 02:00:00 6,4 3,8 8,0 41 22 40 21 WSW 989,3
28.01.2020 01:00:00 5,7 3,7 8,0 31 17 32 18 W 989,8
28.01.2020 00:00:00 5,4 2,7 8,0 22 12 25 14 WNW 989,9
27.01.2020 23:00:00 5,6 3,2 8,1 16 9 54 29 SSW 990,7
27.01.2020 22:00:00 5,7 2,9 8,1 22 12 61 33 S 992,3
27.01.2020 21:00:00 6,8 5,1 8,1 59 32 65 35 S 993,7
27.01.2020 20:00:00 7,5 5,3 8,1 18 10 40 21 S 995,0
27.01.2020 19:00:00 8,2 6,0 8,1 26 14 29 16 SSW 996,1
27.01.2020 18:00:00 7,9 6,0 8,0 31 17 32 18 SSW 997,5
27.01.2020 17:00:00 7,8 6,1 8,0 31 17 36 19 SW 998,4
27.01.2020 16:00:00 7,9 6,3 7,9 31 17 32 18 SW 999,3
27.01.2020 15:00:00 8,1 5,4 7,9 29 16 32 18 SW 999,9
27.01.2020 14:00:00 7,3 4,9 7,9 34 18 47 25 W 1000,6
27.01.2020 13:00:00 8,6 6,5 8,0 48 26 47 25 SW 1000,9
27.01.2020 12:00:00 8,6 6,4 8,0 44 24 47 25 SW 1001,8
27.01.2020 11:00:00 8,5 6,3 8,0 44 24 47 25 SW 1002,0
27.01.2020 10:00:00 8,5 6,4 8,0 46 25 47 25 SW 1002,5
27.01.2020 09:00:00 8,4 6,6 8,1 44 24 43 23 SW 1002,8
27.01.2020 08:00:00 8,3 6,8 8,1 41 22 43 23 SW 1002,9
27.01.2020 07:00:00 8,2 6,3 8,1 37 20 36 19 SW 1003,2
27.01.2020 06:00:00 8,1 6,3 8,1 39 21 43 23 SW 1003,4
27.01.2020 05:00:00 8,1 5,9 8,1 39 21 43 23 WSW 1003,9
27.01.2020 04:00:00 8,3 6,5 8,0 39 21 47 25 WSW 1004,0
27.01.2020 03:00:00 8,4 6,5 7,9 42 23 50 27 WSW 1004,0
27.01.2020 02:00:00 8,4 7,2 7,9 50 27 50 27 SW 1003,9
27.01.2020 01:00:00 8,7 7,6 7,9 54 29 61 33 SSW 1004,2
27.01.2020 00:00:00 8,7 7,5 7,9 55 30 58 31 SSW 1004,6
26.01.2020 23:00:00 8,6 7,2 7,9 55 30 58 31 SSW 1005,3
26.01.2020 22:00:00 8,5 7,0 8,0 54 29 54 29 SSW 1006,2
26.01.2020 21:00:00 8,7 6,9 8,1 55 30 58 31 SSW 1007,1
26.01.2020 20:00:00 8,9 6,8 8,2 55 30 58 31 SSW 1007,8
26.01.2020 19:00:00 8,7 6,7 8,1 54 29 54 29 SSW 1008,2
26.01.2020 18:00:00 8,6 6,7 - 52 28 54 29 SSW 1008,6
26.01.2020 17:00:00 8,6 6,6 8,0 48 26 58 31 SSW 1009,1
26.01.2020 16:00:00 8,5 6,3 8,0 52 28 54 29 SSW 1009,7
26.01.2020 15:00:00 8,5 6,4 8,0 44 24 47 25 SSW 1009,9
26.01.2020 14:00:00 8,4 6,6 8,0 41 22 50 27 SSW 1010,5
26.01.2020 13:00:00 8,5 6,8 7,9 41 22 43 23 SSW 1011,3
26.01.2020 12:00:00 8,6 6,4 7,9 32 18 43 23 SSW 1011,8
26.01.2020 11:00:00 8,4 6,2 7,9 39 21 40 21 SSW 1012,4
26.01.2020 10:00:00 7,9 5,3 8,0 39 21 40 21 S 1012,6
26.01.2020 09:00:00 7,4 5,7 8,1 37 20 40 21 SSW 1013,0
26.01.2020 08:00:00 7,4 6,0 8,1 35 19 36 19 SSW 1013,0
26.01.2020 07:00:00 7,3 6,3 8,1 34 18 36 19 SSW 1013,1
26.01.2020 06:00:00 7,0 6,2 8,0 39 21 40 21 SSW 1013,6
26.01.2020 05:00:00 6,4 5,9 8,0 41 22 43 23 S 1014,1
26.01.2020 04:00:00 6,2 5,5 7,9 41 22 43 23 S 1014,4
26.01.2020 03:00:00 6,3 5,6 7,9 42 23 43 23 S 1015,0
26.01.2020 02:00:00 5,8 4,9 7,9 44 24 47 25 S 1015,5
26.01.2020 01:00:00 5,8 4,5 7,9 37 20 40 21 S 1016,3
26.01.2020 00:00:00 6,2 4,1 7,9 35 19 36 19 S 1016,8
25.01.2020 23:00:00 6,9 4,7 7,9 31 17 32 18 SSW 1017,2
25.01.2020 22:00:00 7,1 4,4 8,0 29 16 29 16 SW 1017,7
25.01.2020 21:00:00 6,9 4,1 8,1 22 12 25 14 SW 1017,9
25.01.2020 20:00:00 6,8 3,3 8,1 28 15 32 18 WSW 1018,1
25.01.2020 19:00:00 6,8 3,3 8,1 31 17 32 18 WSW 1018,2
25.01.2020 18:00:00 6,5 3,4 8,0 34 18 36 19 SW 1018,0
25.01.2020 17:00:00 6,5 3,2 8,0 35 19 36 19 WSW 1017,8
25.01.2020 16:00:00 6,5 2,0 7,9 31 17 36 19 WSW 1018,1
25.01.2020 15:00:00 6,5 1,4 7,9 35 19 36 19 SW 1018,5
25.01.2020 14:00:00 6,7 2,4 7,9 35 19 36 19 WSW 1019,1
25.01.2020 13:00:00 7,0 2,8 7,9 31 17 32 18 WSW 1019,6
25.01.2020 12:00:00 7,0 2,6 8,0 29 16 32 18 WSW 1020,0
25.01.2020 11:00:00 7,3 3,1 8,0 29 16 29 16 WSW 1019,8
25.01.2020 10:00:00 7,3 3,8 8,1 26 14 29 16 SW 1019,7
25.01.2020 09:00:00 7,3 2,7 8,1 26 14 29 16 WSW 1019,7
25.01.2020 08:00:00 7,1 3,0 8,1 22 12 29 16 WSW 1019,5
25.01.2020 07:00:00 6,9 3,4 8,1 28 15 29 16 SW 1019,4
25.01.2020 06:00:00 7,2 3,8 8,1 28 15 29 16 SW 1019,3
25.01.2020 05:00:00 7,3 4,0 8,0 28 15 29 16 WSW 1019,5
25.01.2020 04:00:00 7,3 4,6 7,9 28 15 29 16 WSW 1019,9
25.01.2020 03:00:00 7,2 5,7 7,9 21 11 22 12 WSW 1020,2
25.01.2020 02:00:00 7,2 5,8 7,9 21 11 22 12 WSW 1020,4
25.01.2020 01:00:00 7,2 5,5 7,9 22 12 25 14 WSW 1020,6
25.01.2020 00:00:00 7,3 5,0 7,9 16 9 22 12 WSW 1020,8
24.01.2020 23:00:00 7,2 3,2 7,9 18 10 18 10 WSW 1020,9
24.01.2020 22:00:00 7,2 3,6 8,0 16 9 18 10 WSW 1021,3
24.01.2020 21:00:00 7,1 3,2 8,0 13 7 18 10 WSW 1021,4
24.01.2020 20:00:00 7,2 3,5 8,1 11 6 18 10 W 1021,5
24.01.2020 19:00:00 7,1 2,9 8,0 16 9 25 14 W 1021,4
24.01.2020 18:00:00 7,2 4,1 8,0 18 10 22 12 W 1021,3
24.01.2020 17:00:00 7,0 5,1 8,0 21 11 25 14 W 1021,0
24.01.2020 16:00:00 6,9 5,4 8,0 22 12 22 12 W 1021,0
24.01.2020 15:00:00 6,9 5,2 7,9 22 12 25 14 WSW 1020,9
24.01.2020 14:00:00 7,0 4,3 7,9 22 12 25 14 WSW 1021,5
24.01.2020 13:00:00 6,9 4,3 7,9 21 11 25 14 WSW 1022,0
24.01.2020 12:00:00 7,0 5,2 7,9 16 9 22 12 WSW 1022,7
24.01.2020 11:00:00 6,7 5,7 8,0 21 11 22 12 W 1023,1
24.01.2020 10:00:00 6,6 5,4 8,0 21 11 22 12 WSW 1022,5
24.01.2020 09:00:00 6,5 5,0 8,1 18 10 18 10 WSW 1022,4
24.01.2020 08:00:00 6,5 4,9 8,1 18 10 29 16 WSW 1022,8
24.01.2020 07:00:00 6,3 4,9 8,1 24 13 29 16 WSW 1022,7
24.01.2020 06:00:00 6,4 4,8 8,0 21 11 25 14 WSW 1022,6
24.01.2020 05:00:00 6,1 4,8 8,0 21 11 25 14 WSW 1023,3
24.01.2020 04:00:00 6,1 4,9 8,0 21 11 25 14 W 1023,8
24.01.2020 03:00:00 6,4 5,3 7,9 16 9 22 12 W 1024,7
24.01.2020 02:00:00 6,4 5,2 7,9 18 10 18 10 WSW 1024,9
24.01.2020 01:00:00 6,4 5,3 7,8 13 7 18 10 WSW 1025,6
24.01.2020 00:00:00 6,4 5,1 7,9 8 4 14 8 W 1026,2
23.01.2020 23:00:00 6,4 5,6 8,0 8 4 11 6 WNW 1026,6
23.01.2020 22:00:00 6,3 5,0 8,1 15 8 18 10 WNW 1027,2
23.01.2020 21:00:00 6,4 5,8 8,1 18 10 18 10 WNW 1027,7
23.01.2020 20:00:00 6,6 6,0 8,2 13 7 18 10 W 1028,1
23.01.2020 19:00:00 6,8 6,0 8,2 11 6 18 10 SW 1028,3
23.01.2020 18:00:00 7,0 6,0 8,1 11 6 14 8 W 1028,4
23.01.2020 17:00:00 7,1 6,0 8,1 8 4 14 8 SW 1028,7
23.01.2020 16:00:00 7,0 6,2 8,0 8 4 14 8 SW 1029,3
23.01.2020 15:00:00 6,8 6,5 8,0 9 5 11 6 SSW 1030,1
23.01.2020 14:00:00 6,9 6,4 7,9 9 5 11 6 SSW 1031,2
23.01.2020 13:00:00 6,8 6,3 7,9 5 3 7 4 SW 1032,0
23.01.2020 12:00:00 6,8 6,4 8,0 5 3 7 4 SSW 1032,7
23.01.2020 11:00:00 6,7 6,4 8,1 4 2 7 4 - 1033,3
23.01.2020 10:00:00 6,6 6,0 8,1 2 1 7 4 S 1033,5
23.01.2020 09:00:00 6,4 6,0 8,1 0 0 4 2 N 1033,9
23.01.2020 08:00:00 6,3 5,7 8,2 4 2 11 6 S 1033,9
23.01.2020 07:00:00 6,5 6,1 8,2 11 6 14 8 WSW 1034,1
23.01.2020 06:00:00 6,7 5,8 8,2 9 5 14 8 SW 1034,3
23.01.2020 05:00:00 6,9 6,1 8,2 5 3 11 6 W 1034,8
23.01.2020 04:00:00 7,2 6,7 8,1 8 4 11 6 WSW 1035,3
23.01.2020 03:00:00 7,2 7,0 8,0 5 3 7 4 WSW 1035,7
23.01.2020 02:00:00 7,2 6,7 7,9 4 2 7 4 WNW 1036,2
23.01.2020 01:00:00 7,2 7,0 7,9 0 0 7 4 N 1036,5
23.01.2020 00:00:00 7,2 7,0 8,0 8 4 7 4 N 1036,8
22.01.2020 23:00:00 7,4 7,1 8,1 8 4 7 4 N 1036,8
22.01.2020 22:00:00 7,4 7,2 8,1 5 3 11 6 N 1036,8
22.01.2020 21:00:00 7,4 7,0 8,1 11 6 14 8 N 1036,8
22.01.2020 20:00:00 7,5 7,1 8,2 13 7 18 10 N 1036,8
22.01.2020 19:00:00 7,6 7,3 8,3 13 7 14 8 NNW 1036,8
22.01.2020 18:00:00 7,6 7,5 8,3 15 8 14 8 NW 1036,6
22.01.2020 17:00:00 7,6 7,2 8,2 13 7 14 8 NW 1036,4
22.01.2020 16:00:00 7,6 7,2 8,2 11 6 14 8 NW 1036,5
22.01.2020 15:00:00 7,6 7,2 8,1 15 8 14 8 NW 1036,5
22.01.2020 14:00:00 7,9 7,2 8,0 13 7 14 8 NNW 1036,7
22.01.2020 13:00:00 8,2 7,2 8,0 13 7 14 8 NNW 1037,1
22.01.2020 12:00:00 8,0 7,4 8,0 15 8 18 10 NNW 1037,4
22.01.2020 11:00:00 7,9 6,9 8,0 18 10 18 10 N 1037,5
22.01.2020 10:00:00 7,8 7,0 8,0 21 11 22 12 NNW 1037,1
22.01.2020 09:00:00 7,6 7,1 8,0 21 11 25 14 NW 1036,8

tt = temperature
td = dewpoint
tw = water temperature
ff = wind speed
fx = gusts
dd = wind direction
ppp = reduced air pressure

Next stations